createdAt,value
2018-04-20T00:00:19.722Z,4.57
2018-04-20T00:02:47.180Z,4.10
2018-04-20T00:05:14.662Z,4.10
2018-04-20T00:07:42.136Z,4.13
2018-04-20T00:10:10.353Z,4.00
2018-04-20T00:12:37.817Z,4.40
2018-04-20T00:15:05.277Z,4.83
2018-04-20T00:17:32.763Z,4.40
2018-04-20T00:20:00.231Z,4.70
2018-04-20T00:22:27.693Z,4.97
2018-04-20T00:24:55.924Z,4.93
2018-04-20T00:27:24.169Z,5.10
2018-04-20T00:29:51.851Z,5.17
2018-04-20T00:32:19.319Z,5.57
2018-04-20T00:34:46.835Z,4.93
2018-04-20T00:37:15.017Z,5.50
2018-04-20T00:39:42.477Z,4.80
2018-04-20T00:42:09.952Z,5.60
2018-04-20T00:44:37.423Z,5.43
2018-04-20T00:47:04.902Z,5.60
2018-04-20T00:49:32.353Z,5.20
2018-04-20T00:51:59.815Z,5.40
2018-04-20T00:54:27.275Z,5.43
2018-04-20T00:56:54.750Z,5.33
2018-04-20T00:59:22.225Z,5.10
2018-04-20T01:01:49.684Z,4.90
2018-04-20T01:04:17.177Z,4.97
2018-04-20T01:06:45.406Z,5.57
2018-04-20T01:09:12.855Z,5.07
2018-04-20T01:11:40.312Z,5.50
2018-04-20T01:14:07.770Z,5.83
2018-04-20T01:16:35.253Z,5.63
2018-04-20T01:19:02.714Z,5.67
2018-04-20T01:21:30.199Z,5.40
2018-04-20T01:23:57.653Z,5.53
2018-04-20T01:26:25.117Z,5.43
2018-04-20T01:28:52.571Z,5.33
2018-04-20T01:31:20.050Z,5.30
2018-04-20T01:33:47.526Z,5.80
2018-04-20T01:36:14.993Z,5.77
2018-04-20T01:38:42.472Z,5.23
2018-04-20T01:41:10.696Z,5.73
2018-04-20T01:43:38.148Z,4.93
2018-04-20T01:46:05.610Z,5.13
2018-04-20T01:48:33.072Z,5.43
2018-04-20T01:51:00.546Z,5.30
2018-04-20T01:53:28.010Z,4.90
2018-04-20T01:55:55.483Z,4.93
2018-04-20T01:58:22.953Z,5.57
2018-04-20T02:00:50.503Z,6.13
2018-04-20T02:03:17.905Z,5.90
2018-04-20T02:05:45.391Z,7.20
2018-04-20T02:08:13.622Z,6.77
2018-04-20T02:10:41.081Z,6.70
2018-04-20T02:13:08.539Z,7.17
2018-04-20T02:15:35.993Z,8.27
2018-04-20T02:18:03.486Z,8.00
2018-04-20T02:20:30.949Z,8.30
2018-04-20T02:22:58.427Z,7.60
2018-04-20T02:25:25.894Z,7.73
2018-04-20T02:27:53.365Z,7.40
2018-04-20T02:30:20.834Z,6.70
2018-04-20T02:32:48.295Z,7.50
2018-04-20T02:35:15.776Z,7.10
2018-04-20T02:37:43.234Z,6.40
2018-04-20T02:40:11.493Z,6.93
2018-04-20T02:42:38.966Z,6.67
2018-04-20T02:45:06.427Z,6.30
2018-04-20T02:47:33.890Z,6.23
2018-04-20T02:50:01.344Z,6.00
2018-04-20T02:52:28.829Z,5.87
2018-04-20T02:54:56.297Z,6.80
2018-04-20T02:57:23.766Z,5.77
2018-04-20T02:59:52.182Z,6.57
2018-04-20T03:02:19.685Z,7.60
2018-04-20T03:04:47.157Z,7.10
2018-04-20T03:07:14.609Z,7.63
2018-04-20T03:09:42.065Z,7.33
2018-04-20T03:12:09.529Z,7.17
2018-04-20T03:14:37.017Z,7.17
2018-04-20T03:17:04.473Z,6.83
2018-04-20T03:19:31.956Z,6.00
2018-04-20T03:22:00.190Z,6.30
2018-04-20T03:24:27.668Z,5.87
2018-04-20T03:26:55.146Z,5.80
2018-04-20T03:29:22.610Z,5.70
2018-04-20T03:31:50.085Z,5.50
2018-04-20T03:34:17.556Z,5.60
2018-04-20T03:36:45.818Z,5.33
2018-04-20T03:39:13.286Z,5.27
2018-04-20T03:41:40.748Z,5.70
2018-04-20T03:44:08.210Z,5.80
2018-04-20T03:46:35.785Z,5.70
2018-04-20T03:49:03.265Z,5.90
2018-04-20T03:51:31.498Z,5.57
2018-04-20T03:53:58.995Z,5.10
2018-04-20T03:56:26.458Z,6.13
2018-04-20T03:58:53.931Z,6.10
2018-04-20T04:01:22.155Z,5.57
2018-04-20T04:03:49.609Z,5.27
2018-04-20T04:06:17.093Z,5.90
2018-04-20T04:08:44.559Z,5.43
2018-04-20T04:11:12.022Z,4.90
2018-04-20T04:13:39.490Z,5.73
2018-04-20T04:16:06.948Z,5.63
2018-04-20T04:18:46.172Z,5.33
2018-04-20T04:21:25.546Z,5.10
2018-04-20T04:24:04.900Z,5.03
2018-04-20T04:26:45.000Z,4.97
2018-04-20T04:29:13.312Z,4.93
2018-04-20T04:31:40.792Z,5.03
2018-04-20T04:34:09.040Z,5.20
2018-04-20T04:36:36.500Z,5.67
2018-04-20T04:39:03.965Z,5.00
2018-04-20T04:41:31.439Z,5.17
2018-04-20T04:43:58.907Z,5.93
2018-04-20T04:46:26.369Z,5.40
2018-04-20T04:48:53.844Z,5.87
2018-04-20T04:51:21.321Z,5.70
2018-04-20T04:53:49.557Z,5.70
2018-04-20T04:56:17.019Z,5.80
2018-04-20T04:58:44.491Z,5.80
2018-04-20T05:01:11.950Z,6.53
2018-04-20T05:03:39.433Z,6.83
2018-04-20T05:06:06.896Z,6.73
2018-04-20T05:08:34.371Z,6.80
2018-04-20T05:11:02.612Z,6.67
2018-04-20T05:13:30.082Z,6.87
2018-04-20T05:15:57.557Z,7.53
2018-04-20T05:18:25.024Z,7.10
2018-04-20T05:20:52.493Z,7.53
2018-04-20T05:23:19.962Z,7.47
2018-04-20T05:25:47.420Z,7.43
2018-04-20T05:28:14.886Z,7.23
2018-04-20T05:30:42.349Z,7.20
2018-04-20T05:33:09.834Z,7.40
2018-04-20T05:35:38.064Z,7.23
2018-04-20T05:38:05.544Z,7.20
2018-04-20T05:40:33.011Z,7.33
2018-04-20T05:43:00.475Z,7.70
2018-04-20T05:45:27.938Z,8.40
2018-04-20T05:47:55.396Z,7.60
2018-04-20T05:50:22.877Z,8.30
2018-04-20T05:52:50.342Z,9.00
2018-04-20T05:55:17.829Z,9.43
2018-04-20T05:57:46.070Z,9.50
2018-04-20T06:00:13.553Z,11.30
2018-04-20T06:02:41.020Z,10.53
2018-04-20T06:05:08.485Z,10.33
2018-04-20T06:07:35.973Z,10.77
2018-04-20T06:10:04.224Z,11.57
2018-04-20T06:12:31.728Z,12.80
2018-04-20T06:14:59.219Z,12.50
2018-04-20T06:17:26.670Z,12.17
2018-04-20T06:19:54.142Z,10.77
2018-04-20T06:22:21.617Z,10.13
2018-04-20T06:24:49.090Z,9.80
2018-04-20T06:27:17.320Z,9.33
2018-04-20T06:29:44.807Z,8.27
2018-04-20T06:32:12.267Z,7.83
2018-04-20T06:34:39.731Z,8.50
2018-04-20T06:37:07.201Z,8.40
2018-04-20T06:39:34.673Z,8.43
2018-04-20T06:42:03.067Z,9.37
2018-04-20T06:44:30.542Z,7.70
2018-04-20T06:46:58.790Z,7.60
2018-04-20T06:49:26.244Z,8.03
2018-04-20T06:51:53.718Z,8.07
2018-04-20T06:54:21.180Z,7.80
2018-04-20T06:56:48.684Z,8.60
2018-04-20T06:59:16.128Z,8.20
2018-04-20T07:01:43.588Z,7.67
2018-04-20T07:04:11.068Z,7.87
2018-04-20T07:06:38.533Z,7.83
2018-04-20T07:09:06.009Z,7.30
2018-04-20T07:11:33.480Z,7.67
2018-04-20T07:14:00.960Z,7.57
2018-04-20T07:16:29.216Z,7.90
2018-04-20T07:18:56.689Z,7.50
2018-04-20T07:21:24.162Z,7.30
2018-04-20T07:23:52.396Z,6.90
2018-04-20T07:26:19.868Z,6.73
2018-04-20T07:28:47.324Z,6.97
2018-04-20T07:31:14.792Z,6.67
2018-04-20T07:33:42.258Z,6.70
2018-04-20T07:36:09.737Z,6.17
2018-04-20T07:38:37.232Z,6.97
2018-04-20T07:41:05.473Z,6.83
2018-04-20T07:43:33.706Z,6.73
2018-04-20T07:46:01.179Z,6.77
2018-04-20T07:48:28.654Z,6.90
2018-04-20T07:50:56.137Z,6.73
2018-04-20T07:53:23.592Z,6.73
2018-04-20T07:55:51.056Z,7.30
2018-04-20T07:58:18.532Z,7.20
2018-04-20T08:00:45.986Z,7.53
2018-04-20T08:03:13.494Z,7.30
2018-04-20T08:05:41.716Z,7.73
2018-04-20T08:08:09.187Z,7.33
2018-04-20T08:10:36.655Z,6.70
2018-04-20T08:13:04.128Z,7.27
2018-04-20T08:15:31.612Z,7.20
2018-04-20T08:17:59.090Z,6.87
2018-04-20T08:20:26.566Z,6.97
2018-04-20T08:22:54.793Z,6.53
2018-04-20T08:25:22.264Z,7.20
2018-04-20T08:27:49.721Z,6.10
2018-04-20T08:30:17.189Z,6.50
2018-04-20T08:32:44.720Z,6.23
2018-04-20T08:35:12.195Z,6.47
2018-04-20T08:37:39.662Z,6.70
2018-04-20T08:40:07.117Z,5.70
2018-04-20T08:42:34.587Z,6.07
2018-04-20T08:45:02.065Z,5.67
2018-04-20T08:47:29.517Z,6.67
2018-04-20T08:49:56.984Z,5.93
2018-04-20T08:52:24.464Z,6.23
2018-04-20T08:54:51.932Z,5.77
2018-04-20T08:57:19.387Z,5.97
2018-04-20T08:59:46.859Z,5.63
2018-04-20T09:02:14.351Z,5.70
2018-04-20T09:04:41.811Z,6.03
2018-04-20T09:07:09.282Z,5.80
2018-04-20T09:09:37.505Z,5.43
2018-04-20T09:12:04.969Z,5.90
2018-04-20T09:14:32.457Z,5.57
2018-04-20T09:16:59.922Z,5.60
2018-04-20T09:19:27.407Z,5.63
2018-04-20T09:21:54.868Z,5.33
2018-04-20T09:24:22.355Z,5.23
2018-04-20T09:26:50.582Z,5.57
2018-04-20T09:29:18.050Z,5.70
2018-04-20T09:31:45.512Z,4.93
2018-04-20T09:34:12.982Z,6.00
2018-04-20T09:36:40.471Z,5.73
2018-04-20T09:39:08.037Z,5.57
2018-04-20T09:41:35.503Z,5.53
2018-04-20T09:44:02.975Z,5.90
2018-04-20T09:46:31.257Z,5.77
2018-04-20T09:48:58.696Z,24.27
2018-04-20T09:51:26.276Z,7.97
2018-04-20T09:53:53.755Z,39.33
2018-04-20T09:56:21.991Z,103.37
2018-04-20T09:58:49.463Z,14.60
2018-04-20T10:01:23.699Z,6.20
2018-04-20T10:03:57.713Z,6.10
2018-04-20T10:06:25.279Z,6.53
2018-04-20T10:08:52.749Z,7.90
2018-04-20T10:11:20.205Z,8.83
2018-04-20T10:13:47.777Z,8.80
2018-04-20T10:16:15.262Z,7.87
2018-04-20T10:18:43.508Z,7.10
2018-04-20T10:21:10.977Z,7.70
2018-04-20T10:23:38.466Z,6.20
2018-04-20T10:26:06.718Z,5.93
2018-04-20T10:28:34.285Z,7.10
2018-04-20T10:31:02.526Z,7.67
2018-04-20T10:33:30.004Z,8.07
2018-04-20T10:35:57.494Z,8.20
2018-04-20T10:38:24.966Z,6.83
2018-04-20T10:40:52.439Z,7.70
2018-04-20T10:43:20.675Z,7.00
2018-04-20T10:45:48.275Z,6.27
2018-04-20T10:48:18.451Z,6.43
2018-04-20T10:50:46.839Z,6.53
2018-04-20T10:53:15.214Z,5.10
2018-04-20T10:55:43.301Z,6.33
2018-04-20T10:58:10.782Z,5.57
2018-04-20T11:00:38.251Z,4.87
2018-04-20T11:03:05.735Z,4.73
2018-04-20T11:05:33.200Z,4.40
2018-04-20T11:08:00.682Z,4.30
2018-04-20T11:10:28.910Z,4.30
2018-04-20T11:12:56.378Z,5.17
2018-04-20T11:15:23.862Z,5.00
2018-04-20T11:17:51.332Z,4.33
2018-04-20T11:20:18.804Z,4.67
2018-04-20T11:22:46.264Z,3.90
2018-04-20T11:25:13.752Z,4.43
2018-04-20T11:27:41.975Z,4.37
2018-04-20T11:30:09.448Z,4.40
2018-04-20T11:32:36.918Z,3.77
2018-04-20T11:35:04.379Z,4.77
2018-04-20T11:37:31.845Z,4.40
2018-04-20T11:39:59.306Z,4.30
2018-04-20T11:42:26.783Z,3.87
2018-04-20T11:44:54.257Z,3.90
2018-04-20T11:47:21.798Z,3.70
2018-04-20T11:49:49.980Z,3.53
2018-04-20T11:52:17.465Z,3.67
2018-04-20T11:54:44.925Z,4.13
2018-04-20T11:57:12.405Z,4.10
2018-04-20T11:59:40.642Z,3.50
2018-04-20T12:02:08.119Z,4.70
2018-04-20T12:04:35.572Z,4.23
2018-04-20T12:07:03.043Z,4.07
2018-04-20T12:09:30.535Z,3.90
2018-04-20T12:11:58.005Z,3.90
2018-04-20T12:14:26.229Z,4.07
2018-04-20T12:16:53.685Z,3.80
2018-04-20T12:19:21.149Z,3.97
2018-04-20T12:21:48.669Z,4.13
2018-04-20T12:24:16.137Z,4.57
2018-04-20T12:26:44.368Z,4.70
2018-04-20T12:29:11.838Z,4.53
2018-04-20T12:31:39.308Z,4.20
2018-04-20T12:34:06.780Z,3.70
2018-04-20T12:36:34.286Z,3.00
2018-04-20T12:39:02.603Z,3.63
2018-04-20T12:41:30.782Z,3.90
2018-04-20T12:43:58.258Z,3.83
2018-04-20T12:46:25.697Z,4.70
2018-04-20T12:48:53.159Z,4.73
2018-04-20T12:51:20.691Z,4.90
2018-04-20T12:53:48.134Z,4.60
2018-04-20T12:56:15.610Z,4.73
2018-04-20T12:58:43.069Z,4.37
2018-04-20T13:01:10.538Z,3.90
2018-04-20T13:03:38.004Z,4.20
2018-04-20T13:06:05.481Z,4.47
2018-04-20T13:08:33.738Z,4.27
2018-04-20T13:11:01.227Z,4.60
2018-04-20T13:13:29.449Z,4.33
2018-04-20T13:15:56.971Z,4.53
2018-04-20T13:18:24.410Z,4.20
2018-04-20T13:20:52.643Z,3.70
2018-04-20T13:23:20.101Z,3.30
2018-04-20T13:25:47.582Z,3.97
2018-04-20T13:28:15.042Z,3.30
2018-04-20T13:30:42.507Z,3.30
2018-04-20T13:33:09.979Z,3.67
2018-04-20T13:35:37.455Z,4.17
2018-04-20T13:38:04.965Z,3.63
2018-04-20T13:40:33.185Z,3.80
2018-04-20T13:43:00.665Z,3.70
2018-04-20T13:45:28.130Z,4.40
2018-04-20T13:47:55.584Z,4.47
2018-04-20T13:50:23.071Z,3.60
2018-04-20T13:52:50.538Z,3.63
2018-04-20T13:55:17.998Z,4.27
2018-04-20T13:57:45.474Z,3.70
2018-04-20T14:00:12.930Z,3.57
2018-04-20T14:02:40.450Z,4.43
2018-04-20T14:05:07.933Z,4.10
2018-04-20T14:07:36.191Z,4.10
2018-04-20T14:10:03.665Z,3.90
2018-04-20T14:12:31.134Z,4.97
2018-04-20T14:14:58.593Z,4.07
2018-04-20T14:17:26.059Z,4.07
2018-04-20T14:19:55.765Z,3.83
2018-04-20T14:22:23.233Z,4.13
2018-04-20T14:24:50.715Z,4.03
2018-04-20T14:27:18.179Z,3.67
2018-04-20T14:29:45.639Z,4.20
2018-04-20T14:32:13.101Z,4.30
2018-04-20T14:34:40.613Z,4.20
2018-04-20T14:37:08.827Z,4.30
2018-04-20T14:39:36.293Z,3.63
2018-04-20T14:42:03.787Z,3.90
2018-04-20T14:44:31.253Z,4.30
2018-04-20T14:46:58.701Z,3.13
2018-04-20T14:49:26.175Z,3.50
2018-04-20T14:51:53.663Z,3.83
2018-04-20T14:54:21.899Z,3.80
2018-04-20T14:56:49.359Z,3.40
2018-04-20T14:59:16.820Z,3.47
2018-04-20T15:01:44.320Z,4.30
2018-04-20T15:04:11.786Z,3.57
2018-04-20T15:06:39.295Z,3.73
2018-04-20T15:09:06.781Z,3.73
2018-04-20T15:11:34.245Z,3.40
2018-04-20T15:14:01.739Z,3.23
2018-04-20T15:16:29.211Z,3.43
2018-04-20T15:18:56.675Z,3.70
2018-04-20T15:21:24.145Z,3.77
2018-04-20T15:23:51.642Z,3.37
2018-04-20T15:26:19.218Z,4.10
2018-04-20T15:28:46.675Z,4.03
2018-04-20T15:31:14.149Z,3.73
2018-04-20T15:33:41.650Z,3.60
2018-04-20T15:36:09.182Z,3.90
2018-04-20T15:38:36.609Z,3.53
2018-04-20T15:41:04.858Z,3.57
2018-04-20T15:43:32.335Z,3.50
2018-04-20T15:45:59.823Z,3.60
2018-04-20T15:48:28.069Z,4.00
2018-04-20T15:50:55.529Z,3.60
2018-04-20T15:53:23.045Z,4.10
2018-04-20T15:55:50.611Z,3.90
2018-04-20T15:58:18.094Z,3.17
2018-04-20T16:00:45.554Z,3.20
2018-04-20T16:03:13.017Z,3.97
2018-04-20T16:05:40.485Z,3.80
2018-04-20T16:08:07.985Z,3.70
2018-04-20T16:10:35.468Z,3.40
2018-04-20T16:13:03.705Z,2.97
2018-04-20T16:15:31.174Z,3.00
2018-04-20T16:17:58.638Z,3.50
2018-04-20T16:20:26.126Z,3.27
2018-04-20T16:22:53.586Z,3.03
2018-04-20T16:25:21.072Z,2.90
2018-04-20T16:27:49.312Z,2.90
2018-04-20T16:30:16.766Z,2.83
2018-04-20T16:32:44.233Z,2.90
2018-04-20T16:35:12.468Z,2.60
2018-04-20T16:37:40.721Z,2.80
2018-04-20T16:40:08.189Z,2.97
2018-04-20T16:42:35.718Z,2.63
2018-04-20T16:45:03.143Z,2.90
2018-04-20T16:47:31.390Z,2.60
2018-04-20T16:49:58.856Z,3.07
2018-04-20T16:52:26.316Z,2.57
2018-04-20T16:54:53.794Z,3.27
2018-04-20T16:57:22.112Z,2.40
2018-04-20T16:59:49.588Z,3.10
2018-04-20T17:02:17.061Z,2.97
2018-04-20T17:04:44.526Z,3.03
2018-04-20T17:07:12.001Z,2.80
2018-04-20T17:09:39.463Z,2.63
2018-04-20T17:12:06.944Z,2.70
2018-04-20T17:14:34.406Z,2.77
2018-04-20T17:17:01.879Z,2.93
2018-04-20T17:19:29.355Z,3.03
2018-04-20T17:21:56.814Z,3.00
2018-04-20T17:24:24.295Z,2.33
2018-04-20T17:26:52.525Z,2.83
2018-04-20T17:29:19.999Z,3.33
2018-04-20T17:31:47.483Z,2.63
2018-04-20T17:34:14.954Z,2.53
2018-04-20T17:36:42.411Z,3.43
2018-04-20T17:39:09.871Z,3.67
2018-04-20T17:41:37.356Z,3.20
2018-04-20T17:44:04.824Z,3.50
2018-04-20T17:46:33.069Z,3.47
2018-04-20T17:49:00.551Z,3.30
2018-04-20T17:51:28.767Z,3.37
2018-04-20T17:53:56.281Z,3.73
2018-04-20T17:56:23.750Z,3.20
2018-04-20T17:58:51.228Z,3.70
2018-04-20T18:01:19.461Z,4.37
2018-04-20T18:03:46.923Z,4.07
2018-04-20T18:06:14.419Z,4.10
2018-04-20T18:08:41.912Z,4.30
2018-04-20T18:11:10.145Z,4.03
2018-04-20T18:13:37.613Z,4.87
2018-04-20T18:16:05.104Z,4.60
2018-04-20T18:18:32.564Z,4.23
2018-04-20T18:21:00.048Z,4.97
2018-04-20T18:23:28.292Z,4.70
2018-04-20T18:25:55.757Z,4.43
2018-04-20T18:28:23.234Z,4.10
2018-04-20T18:30:50.716Z,3.73
2018-04-20T18:33:18.955Z,4.20
2018-04-20T18:35:46.420Z,4.23
2018-04-20T18:38:13.930Z,4.13
2018-04-20T18:40:42.160Z,4.00
2018-04-20T18:43:10.404Z,4.47
2018-04-20T18:45:37.882Z,4.50
2018-04-20T18:48:05.343Z,4.60
2018-04-20T18:50:32.796Z,4.33
2018-04-20T18:53:00.272Z,4.20
2018-04-20T18:55:27.757Z,4.43
2018-04-20T18:57:55.243Z,4.30
2018-04-20T19:00:22.702Z,4.17
2018-04-20T19:02:50.194Z,4.13
2018-04-20T19:05:18.438Z,4.50
2018-04-20T19:07:45.956Z,5.10
2018-04-20T19:10:14.194Z,5.30
2018-04-20T19:12:41.705Z,8.20
2018-04-20T19:15:09.184Z,8.40
2018-04-20T19:17:36.641Z,7.63
2018-04-20T19:20:04.115Z,6.87
2018-04-20T19:22:31.586Z,5.77
2018-04-20T19:24:59.045Z,5.40
2018-04-20T19:27:26.512Z,5.00
2018-04-20T19:29:54.030Z,5.73
2018-04-20T19:32:22.314Z,6.50
2018-04-20T19:34:50.562Z,8.10
2018-04-20T19:37:18.044Z,8.77
2018-04-20T19:39:45.509Z,10.23
2018-04-20T19:42:12.984Z,10.37
2018-04-20T19:44:41.226Z,10.67
2018-04-20T19:47:08.806Z,11.17
2018-04-20T19:49:36.375Z,13.03
2018-04-20T19:52:03.868Z,12.57
2018-04-20T19:54:32.113Z,11.70
2018-04-20T19:56:59.635Z,10.37
2018-04-20T19:59:27.078Z,11.00
2018-04-20T20:01:55.358Z,10.50
2018-04-20T20:04:22.907Z,11.00
2018-04-20T20:06:50.390Z,11.20
2018-04-20T20:09:18.641Z,10.63
2018-04-20T20:11:46.937Z,10.87
2018-04-20T20:14:14.373Z,73.60
2018-04-20T20:16:41.863Z,202.67
2018-04-20T20:19:09.334Z,77.07
2018-04-20T20:21:36.820Z,32.10
2018-04-20T20:24:04.293Z,35.40
2018-04-20T20:26:31.817Z,31.27
2018-04-20T20:28:59.295Z,28.03
2018-04-20T20:31:27.523Z,25.37
2018-04-20T20:33:54.995Z,24.50
2018-04-20T20:36:22.469Z,26.03
2018-04-20T20:38:49.947Z,24.33
2018-04-20T20:41:17.418Z,22.93
2018-04-20T20:43:44.893Z,19.63
2018-04-20T20:46:13.142Z,18.20
2018-04-20T20:48:40.621Z,17.87
2018-04-20T20:51:08.875Z,17.57
2018-04-20T20:53:36.374Z,17.33
2018-04-20T20:56:03.869Z,19.13
2018-04-20T20:58:31.332Z,21.60
2018-04-20T21:00:58.822Z,18.83
2018-04-20T21:03:26.287Z,12.67
2018-04-20T21:05:53.777Z,9.93
2018-04-20T21:08:21.264Z,9.80
2018-04-20T21:10:49.487Z,8.47
2018-04-20T21:13:16.987Z,9.20
2018-04-20T21:15:44.471Z,11.23
2018-04-20T21:18:12.759Z,11.60
2018-04-20T21:20:41.006Z,11.07
2018-04-20T21:23:08.465Z,9.20
2018-04-20T21:25:35.937Z,8.23
2018-04-20T21:28:04.165Z,9.63
2018-04-20T21:30:31.645Z,12.40
2018-04-20T21:32:59.115Z,9.53
2018-04-20T21:35:26.606Z,8.60
2018-04-20T21:37:54.072Z,8.37
2018-04-20T21:40:21.560Z,7.83
2018-04-20T21:42:49.804Z,7.70
2018-04-20T21:45:17.277Z,10.03
2018-04-20T21:47:44.741Z,15.43
2018-04-20T21:50:12.225Z,14.97
2018-04-20T21:52:39.699Z,23.23
2018-04-20T21:55:07.993Z,26.57
2018-04-20T21:57:35.463Z,20.20
2018-04-20T22:00:02.939Z,16.43
2018-04-20T22:02:30.451Z,12.10
2018-04-20T22:04:57.917Z,13.13
2018-04-20T22:07:25.450Z,11.83
2018-04-20T22:09:52.916Z,10.60
2018-04-20T22:12:20.424Z,11.30
2018-04-20T22:14:47.905Z,9.80
2018-04-20T22:17:16.153Z,10.47
2018-04-20T22:19:43.655Z,10.33
2018-04-20T22:22:11.887Z,12.00
2018-04-20T22:24:39.376Z,13.23
2018-04-20T22:27:06.836Z,13.77
2018-04-20T22:29:34.298Z,10.43
2018-04-20T22:32:01.772Z,9.10
2018-04-20T22:34:30.015Z,8.83
2018-04-20T22:36:57.499Z,8.03
2018-04-20T22:39:24.962Z,8.23
2018-04-20T22:41:52.436Z,9.10
2018-04-20T22:44:20.002Z,8.53
2018-04-20T22:46:48.259Z,8.43
2018-04-20T22:49:15.744Z,8.30
2018-04-20T22:51:43.213Z,7.87
2018-04-20T22:54:10.700Z,7.90
2018-04-20T22:56:38.949Z,7.70
2018-04-20T22:59:06.410Z,7.83
2018-04-20T23:01:33.882Z,7.47
2018-04-20T23:04:01.366Z,6.67
2018-04-20T23:06:29.600Z,6.23
2018-04-20T23:08:57.074Z,6.97
2018-04-20T23:11:24.545Z,6.50
2018-04-20T23:13:53.550Z,7.13
2018-04-20T23:16:21.119Z,6.80
2018-04-20T23:18:48.703Z,6.10
2018-04-20T23:21:16.958Z,6.57
2018-04-20T23:23:44.425Z,6.23
2018-04-20T23:26:11.893Z,6.37
2018-04-20T23:28:39.456Z,5.17
2018-04-20T23:31:07.016Z,6.00
2018-04-20T23:33:34.477Z,5.57
2018-04-20T23:36:02.058Z,5.33
2018-04-20T23:38:30.327Z,5.93
2018-04-20T23:40:57.793Z,5.17
2018-04-20T23:43:25.405Z,5.63
2018-04-20T23:45:52.867Z,5.27
2018-04-20T23:48:20.340Z,5.30
2018-04-20T23:50:47.847Z,5.97
2018-04-20T23:53:15.361Z,5.10
2018-04-20T23:55:42.831Z,5.53
2018-04-20T23:58:10.304Z,5.60
